Terminal Aerodrome Forecast
Issued by NWS

Home | Current Version | Previous Version | Text Only | Print | Product List | Glossary On
Versions: 1 2 3 4 5 6 7 8 9 10 11 12 13 14 15 16 17 18 19 20 21 22 23 24 25 26 27 28 29 30
000
FTUS43 KDLH 232100 AAB
TAFHYR
TAF AMD
KHYR 232104Z 2321/2418 22005KT P6SM OVC008
     FM232230 18004KT P6SM SKC
     FM240300 19002KT 3SM BR SKC
      TEMPO 2405/2409 1/2SM FG
     FM241500 19006KT P6SM SKC=

USA.gov is the U.S. government's official web portal to all federal, state and local government web resources and services.